Time;durP1;ratioP1;P1;durP2;ratioP2;P2;SDS_P1;SDS_P2;PMS_P1;PMS_P2;Temp;Humidity;BMP_temperature;BMP_pressure;BME280_temperature;BME280_humidity;BME280_pressure;Samples;Min_cycle;Max_cycle;Signal;HPM_P1;HPM_P2
2021/09/27 00:00:48;;;;;;;9.18;5.30;;;;;;;21.52;74.00;100679.16;4998146;28;20030;-70
2021/09/27 00:03:14;;;;;;;7.30;5.38;;;;;;;21.56;73.94;100679.09;4965423;28;20091;-72
2021/09/27 00:05:40;;;;;;;9.55;5.43;;;;;;;21.57;73.70;100686.34;4997590;28;20033;-71
2021/09/27 00:08:06;;;;;;;8.68;5.25;;;;;;;21.50;73.72;100675.94;4997573;28;20026;-70
2021/09/27 00:10:37;;;;;;;8.10;4.57;;;;;;;21.50;74.47;100680.78;4997446;28;20030;-72
2021/09/27 00:13:04;;;;;;;8.70;4.63;;;;;;;21.34;74.95;100648.25;4997443;28;20026;-71
2021/09/27 00:15:35;;;;;;;8.38;5.57;;;;;;;21.48;75.07;100680.41;4997858;28;20388;-71
2021/09/27 00:18:03;;;;;;;5.65;5.03;;;;;;;21.48;75.38;100671.94;4997859;28;20413;-72
2021/09/27 00:20:29;;;;;;;8.93;5.53;;;;;;;21.50;75.82;100669.47;4997277;28;20061;-72
2021/09/27 00:22:54;;;;;;;10.88;5.90;;;;;;;21.51;76.34;100671.06;4997448;28;20056;-72
2021/09/27 00:25:23;;;;;;;6.72;4.68;;;;;;;21.56;76.08;100662.88;4996906;28;20416;-71
2021/09/27 00:27:51;;;;;;;5.82;4.93;;;;;;;21.54;76.77;100667.38;4996595;28;20049;-71
2021/09/27 00:30:19;;;;;;;11.20;6.47;;;;;;;21.54;76.85;100659.69;4997071;28;20120;-70
2021/09/27 00:32:45;;;;;;;8.25;6.15;;;;;;;21.61;76.95;100661.63;4997051;28;20041;-70
2021/09/27 00:35:14;;;;;;;11.55;6.75;;;;;;;21.62;77.14;100666.03;4996523;28;20141;-71
2021/09/27 00:37:39;;;;;;;10.10;6.53;;;;;;;21.56;77.88;100651.56;4997161;28;20124;-71
2021/09/27 00:40:07;;;;;;;8.23;6.43;;;;;;;21.49;78.62;100650.88;4996924;28;20492;-71
2021/09/27 00:42:33;;;;;;;12.35;6.45;;;;;;;21.52;79.05;100645.19;5014096;28;20058;-72
2021/09/27 00:44:59;;;;;;;10.93;7.30;;;;;;;21.55;79.32;100649.16;4997442;28;20488;-72
2021/09/27 00:47:25;;;;;;;10.60;7.13;;;;;;;21.54;79.79;100648.38;4996858;28;20468;-71
2021/09/27 00:49:51;;;;;;;7.18;6.47;;;;;;;21.53;80.11;100635.44;4996719;28;20037;-72
2021/09/27 00:52:18;;;;;;;11.18;7.22;;;;;;;21.51;80.48;100634.25;4996735;28;20468;-72
2021/09/27 00:54:45;;;;;;;7.97;6.93;;;;;;;21.53;80.69;100635.44;4996682;28;20116;-70
2021/09/27 00:57:20;;;;;;;12.70;7.70;;;;;;;21.48;80.57;100630.25;4996964;28;20109;-71
2021/09/27 00:59:50;;;;;;;8.40;7.60;;;;;;;21.54;80.75;100624.94;4996663;28;20547;-71
2021/09/27 01:02:17;;;;;;;10.93;7.28;;;;;;;21.54;80.82;100624.94;4980658;28;20380;-71
2021/09/27 01:04:43;;;;;;;10.05;6.75;;;;;;;21.50;80.83;100615.69;4996822;28;20468;-71
2021/09/27 01:07:19;;;;;;;8.02;6.35;;;;;;;21.44;81.16;100610.50;4996820;28;20071;-71
2021/09/27 01:10:06;;;;;;;7.78;6.55;;;;;;;21.46;81.03;100615.72;4996515;28;20034;-71
2021/09/27 01:12:48;;;;;;;9.40;6.53;;;;;;;21.41;81.30;100610.53;4997147;28;20116;-71
2021/09/27 01:16:02;;;;;;;7.50;5.90;;;;;;;21.32;81.40;100601.78;4996990;28;20040;-71
2021/09/27 01:18:46;;;;;;;;;;;;;;;21.30;81.15;100605.03;4937930;29;20094;-71
2021/09/27 01:21:29;;;;;;;7.75;6.55;;;;;;;21.33;80.87;100604.19;5012734;28;19916;-70
2021/09/27 01:24:10;;;;;;;11.90;7.57;;;;;;;21.16;80.59;100583.38;4995608;28;20032;-70
2021/09/27 01:27:13;;;;;;;13.10;9.18;;;;;;;20.98;81.76;100596.16;4996701;28;20057;-71
2021/09/27 01:30:09;;;;;;;16.02;8.32;;;;;;;20.88;82.67;100595.09;4996575;28;20457;-72
2021/09/27 01:32:46;;;;;;;7.65;6.82;;;;;;;20.78;82.33;100579.88;4997171;28;20030;-72
2021/09/27 01:35:44;;;;;;;9.20;6.97;;;;;;;21.08;81.57;100595.22;4995934;28;20129;-72
2021/09/27 01:38:13;;;;;;;8.55;6.68;;;;;;;21.05;81.28;100593.25;4997609;28;20041;-71
2021/09/27 01:41:03;;;;;;;8.40;7.55;;;;;;;20.93;81.67;100567.16;5000297;28;20034;-70
2021/09/27 01:43:48;;;;;;;9.88;7.57;;;;;;;21.06;81.22;100594.84;5000225;28;20054;-72
2021/09/27 01:46:44;;;;;;;10.48;7.35;;;;;;;20.98;81.35;100591.28;5000468;28;20108;-72
2021/09/27 01:49:25;;;;;;;8.02;6.97;;;;;;;20.95;81.88;100589.34;5000106;28;20034;-72
2021/09/27 01:52:07;;;;;;;9.95;7.25;;;;;;;20.91;82.25;100578.06;5000317;28;20037;-71
2021/09/27 01:54:42;;;;;;;11.30;7.85;;;;;;;20.92;81.79;100579.66;5000063;28;20022;-72
2021/09/27 01:57:43;;;;;;;8.90;7.90;;;;;;;20.94;81.72;100582.09;5000249;28;20380;-72
2021/09/27 02:00:16;;;;;;;12.63;6.38;;;;;;;20.99;81.02;100577.97;4999991;28;20026;-71
2021/09/27 02:03:19;;;;;;;7.03;5.93;;;;;;;21.02;80.77;100565.81;4999838;28;20030;-72
2021/09/27 02:06:03;;;;;;;9.20;6.00;;;;;;;21.05;80.09;100564.97;5000414;28;20548;-72
2021/09/27 02:08:50;;;;;;;10.13;5.57;;;;;;;21.03;80.32;100562.53;4999785;28;20060;-71
2021/09/27 02:11:19;;;;;;;7.05;5.55;;;;;;;21.04;80.04;100561.34;4999768;28;20036;-72
2021/09/27 02:14:12;;;;;;;11.90;9.50;;;;;;;21.04;79.48;100550.03;5000277;28;20033;-72
2021/09/27 02:17:06;;;;;;;22.52;19.75;;;;;;;21.09;79.26;100554.38;5000269;28;20025;-71
2021/09/27 02:19:40;;;;;;;;;;;;;;;21.04;79.59;100557.69;5000107;28;20030;-71
2021/09/27 02:22:36;;;;;;;23.27;18.95;;;;;;;21.03;79.26;100550.44;4999565;28;20016;-72
2021/09/27 02:25:16;;;;;;;17.42;15.60;;;;;;;21.00;79.19;100545.63;5017163;28;20025;-71
2021/09/27 02:27:45;;;;;;;16.17;14.55;;;;;;;20.96;79.24;100536.41;5000260;28;20068;-72
2021/09/27 02:30:15;;;;;;;9.90;8.93;;;;;;;20.83;78.58;100525.66;5016774;28;20435;-71
2021/09/27 02:33:23;;;;;;;16.48;14.88;;;;;;;20.95;78.43;100544.09;4999915;28;20121;-71
2021/09/27 02:36:26;;;;;;;15.75;14.13;;;;;;;20.92;77.68;100544.91;4970109;28;20054;-71
2021/09/27 02:38:59;;;;;;;13.45;9.70;;;;;;;20.90;77.28;100548.19;4972142;28;20035;-70
2021/09/27 02:41:35;;;;;;;11.68;6.57;;;;;;;20.87;77.80;100532.06;4993201;28;20096;-71
2021/09/27 02:44:00;;;;;;;6.40;5.75;;;;;;;20.83;78.69;100525.66;4979791;28;20064;-72
2021/09/27 02:46:29;;;;;;;8.55;7.40;;;;;;;20.88;78.66;100515.91;4979656;28;20125;-72
2021/09/27 02:49:09;;;;;;;15.98;12.57;;;;;;;20.95;77.58;100521.47;4979284;28;20031;-70
2021/09/27 02:51:36;;;;;;;11.23;9.95;;;;;;;20.96;78.09;100531.53;4979646;28;20030;-71
2021/09/27 02:54:02;;;;;;;16.50;14.35;;;;;;;20.89;77.73;100540.13;4979217;28;20026;-71
2021/09/27 02:56:47;;;;;;;10.85;9.48;;;;;;;20.87;78.28;100543.38;4979816;28;20034;-71
2021/09/27 02:59:23;;;;;;;19.50;17.40;;;;;;;20.84;78.52;100527.25;4979960;28;20033;-71
2021/09/27 03:02:18;;;;;;;18.92;17.13;;;;;;;20.84;78.81;100521.59;4979117;28;20196;-71
2021/09/27 03:05:09;;;;;;;16.52;14.40;;;;;;;20.74;78.59;100505.59;4963509;28;20111;-71
2021/09/27 03:07:40;;;;;;;23.45;18.20;;;;;;;20.85;78.41;100517.53;4997026;28;20030;-71
2021/09/27 03:10:18;;;;;;;24.35;21.77;;;;;;;20.71;78.14;100495.09;4995692;28;20045;-72
2021/09/27 03:13:03;;;;;;;15.18;13.57;;;;;;;20.88;77.76;100505.41;4996213;28;20080;-72
2021/09/27 03:15:47;;;;;;;18.70;10.77;;;;;;;20.84;78.16;100504.63;4995933;28;20023;-71
2021/09/27 03:18:22;;;;;;;17.88;15.63;;;;;;;20.81;78.37;100497.00;4995893;28;20029;-71
2021/09/27 03:21:10;;;;;;;31.23;27.88;;;;;;;20.82;77.95;100501.41;4979037;28;20134;-72
2021/09/27 03:24:02;;;;;;;25.60;23.05;;;;;;;20.82;77.71;100511.94;4978959;28;20062;-70
2021/09/27 03:26:52;;;;;;;17.35;14.50;;;;;;;20.75;77.63;100515.66;4992700;28;20038;-70
2021/09/27 03:29:48;;;;;;;12.60;7.63;;;;;;;20.76;76.91;100508.78;4978937;28;20030;-70
2021/09/27 03:32:29;;;;;;;8.90;5.32;;;;;;;20.79;77.39;100507.94;4978828;28;20027;-71
2021/09/27 03:35:02;;;;;;;9.35;5.90;;;;;;;20.76;76.60;100503.13;4992836;28;20076;-70
2021/09/27 03:37:48;;;;;;;5.25;4.68;;;;;;;20.79;76.68;100507.94;4998139;28;20030;-70
2021/09/27 03:40:46;;;;;;;6.65;4.55;;;;;;;20.72;76.93;100505.22;4998408;28;20034;-71
2021/09/27 03:44:01;;;;;;;7.47;4.47;;;;;;;20.71;76.50;100494.31;4997552;28;20028;-71
2021/09/27 03:46:26;;;;;;;7.43;4.25;;;;;;;20.76;75.74;100497.47;5001013;28;20492;-71
2021/09/27 03:49:16;;;;;;;7.50;3.42;;;;;;;20.70;74.90;100499.16;4998539;28;20026;-71
2021/09/27 03:51:52;;;;;;;4.03;3.15;;;;;;;20.64;74.36;100495.22;4998446;28;20413;-71
2021/09/27 03:54:30;;;;;;;5.90;3.22;;;;;;;20.55;74.54;100497.75;4997888;28;20026;-71
2021/09/27 03:57:02;;;;;;;5.95;3.38;;;;;;;20.46;74.46;100494.63;4997480;28;20030;-71
2021/09/27 03:59:40;;;;;;;5.93;3.63;;;;;;;20.44;74.01;100502.72;5015326;28;20022;-70
2021/09/27 04:02:21;;;;;;;5.07;3.80;;;;;;;20.34;73.93;100488.28;5015246;28;20087;-71
2021/09/27 04:05:17;;;;;;;8.68;2.90;;;;;;;20.31;75.08;100480.66;4981635;28;20038;-72
2021/09/27 04:08:08;;;;;;;8.40;2.78;;;;;;;20.43;75.30;100501.91;4997499;28;20033;-71
2021/09/27 04:10:49;;;;;;;7.07;3.35;;;;;;;20.40;74.75;100497.91;4997974;28;20482;-71
2021/09/27 04:13:37;;;;;;;8.85;3.08;;;;;;;20.44;74.64;100492.22;4997479;28;20037;-71
2021/09/27 04:16:27;;;;;;;9.93;3.67;;;;;;;20.46;74.70;100497.47;4997344;28;20049;-70
2021/09/27 04:19:19;;;;;;;5.90;3.42;;;;;;;20.47;74.78;100496.25;4997277;28;20037;-71
2021/09/27 04:21:44;;;;;;;11.88;4.00;;;;;;;20.49;74.05;100499.44;4997543;28;20029;-71
2021/09/27 04:24:19;;;;;;;5.78;2.72;;;;;;;20.38;73.42;100491.88;4997187;28;20052;-70
2021/09/27 04:27:02;;;;;;;10.52;3.25;;;;;;;20.52;73.09;100509.91;4997164;28;20461;-72
2021/09/27 04:30:02;;;;;;;5.63;2.70;;;;;;;20.52;73.16;100510.72;4997483;28;20033;-71
2021/09/27 04:32:39;;;;;;;8.30;2.75;;;;;;;20.49;72.94;100505.91;4997127;28;20057;-71
2021/09/27 04:35:30;;;;;;;7.90;3.22;;;;;;;20.51;73.89;100508.31;4996656;28;20049;-71
2021/09/27 04:37:56;;;;;;;7.13;3.80;;;;;;;20.51;73.98;100505.50;4996977;28;20022;-71
2021/09/27 04:40:34;;;;;;;8.75;3.17;;;;;;;20.49;73.58;100499.44;4996933;28;20034;-71
2021/09/27 04:43:40;;;;;;;5.10;2.72;;;;;;;20.53;73.18;100506.66;4996797;28;20022;-71
2021/09/27 04:46:20;;;;;;;5.70;3.13;;;;;;;20.53;73.48;100500.22;5012455;28;20041;-71
2021/09/27 04:49:00;;;;;;;6.57;3.13;;;;;;;20.59;73.79;100501.34;4996758;28;20033;-71
2021/09/27 04:51:51;;;;;;;6.68;3.40;;;;;;;20.57;73.17;100490.47;4996778;28;20033;-71
2021/09/27 04:54:16;;;;;;;5.43;2.83;;;;;;;20.48;72.49;100461.13;4996780;28;20033;-71
2021/09/27 04:56:54;;;;;;;6.85;2.95;;;;;;;20.65;72.12;100482.69;4996698;28;20136;-71
2021/09/27 04:59:56;;;;;;;10.80;3.38;;;;;;;20.62;72.88;100480.72;5014298;28;20652;-71
2021/09/27 05:02:39;;;;;;;8.55;3.17;;;;;;;20.55;72.79;100458.19;5014492;28;20026;-71
2021/09/27 05:05:16;;;;;;;6.10;3.17;;;;;;;20.77;72.75;100484.13;4997070;28;20053;-71
2021/09/27 05:07:44;;;;;;;4.18;3.10;;;;;;;20.88;72.41;100493.28;4996817;28;20037;-71
2021/09/27 05:10:15;;;;;;;6.13;2.85;;;;;;;20.98;71.40;100492.31;4996402;28;20057;-71
2021/09/27 05:13:02;;;;;;;5.95;3.22;;;;;;;21.14;71.07;100488.81;4996761;28;20421;-71
2021/09/27 05:15:59;;;;;;;6.05;3.90;;;;;;;21.25;71.19;100474.50;4996700;28;20421;-70
2021/09/27 05:18:43;;;;;;;7.88;3.28;;;;;;;21.48;70.28;100480.22;4996244;28;20124;-71
2021/09/27 05:21:40;;;;;;;9.75;3.22;;;;;;;21.67;69.35;100475.84;4996127;28;20029;-70
2021/09/27 05:24:36;;;;;;;5.72;2.83;;;;;;;21.73;69.16;100457.13;4996091;28;20033;-71
2021/09/27 05:27:23;;;;;;;5.07;3.03;;;;;;;22.04;68.70;100485.28;4996940;28;20053;-72
2021/09/27 05:30:17;;;;;;;5.07;3.15;;;;;;;22.26;67.97;100482.84;4995966;28;20125;-71
2021/09/27 05:33:10;;;;;;;11.95;3.33;;;;;;;22.46;66.77;100486.47;4995962;28;20116;-72
2021/09/27 05:36:37;;;;;;;11.05;3.38;;;;;;;22.69;66.23;100482.75;4995918;28;20128;-71
2021/09/27 05:39:31;;;;;;;6.15;3.17;;;;;;;22.67;65.18;100479.56;4943870;29;20027;-72
2021/09/27 05:41:57;;;;;;;7.15;3.53;;;;;;;22.49;66.15;100466.56;4944510;29;20045;-70
2021/09/27 05:44:51;;;;;;;8.90;3.90;;;;;;;22.56;66.30;100484.66;5002238;28;20041;-71
2021/09/27 05:47:36;;;;;;;5.63;3.42;;;;;;;22.52;66.69;100478.25;4995588;28;20040;-71
2021/09/27 05:50:24;;;;;;;9.65;3.90;;;;;;;22.46;66.41;100481.59;5013793;28;20022;-71
2021/09/27 05:52:59;;;;;;;7.43;4.13;;;;;;;22.49;66.32;100474.28;4995534;28;20065;-71
2021/09/27 05:55:31;;;;;;;6.88;3.60;;;;;;;22.52;66.40;100476.22;4995576;28;20067;-70
2021/09/27 05:58:10;;;;;;;5.97;3.25;;;;;;;22.56;66.57;100484.66;5013579;28;20504;-71
2021/09/27 06:00:41;;;;;;;7.72;3.42;;;;;;;22.44;66.55;100461.41;4996169;28;20022;-70
2021/09/27 06:03:30;;;;;;;4.50;3.33;;;;;;;22.75;66.26;100475.34;4995919;28;20030;-70
2021/09/27 06:06:05;;;;;;;6.40;2.80;;;;;;;22.85;65.89;100487.66;4995437;28;20064;-70
2021/09/27 06:08:52;;;;;;;9.95;3.13;;;;;;;22.96;65.58;100474.88;4995304;28;20057;-72
2021/09/27 06:11:43;;;;;;;8.35;3.65;;;;;;;23.16;65.31;100476.84;4995991;28;20107;-71
2021/09/27 06:14:13;;;;;;;8.35;3.65;;;;;;;23.53;64.79;100472.66;4996204;28;20381;-71
2021/09/27 06:16:48;;;;;;;12.07;4.28;;;;;;;23.73;63.68;100481.91;5012879;28;20056;-70
2021/09/27 06:19:30;;;;;;;7.75;3.55;;;;;;;23.72;64.46;100491.69;4995025;28;20033;-71
2021/09/27 06:22:14;;;;;;;9.57;4.55;;;;;;;23.48;66.00;100490.22;4995323;28;20028;-71
2021/09/27 06:24:54;;;;;;;9.43;4.53;;;;;;;23.21;67.05;100490.50;4996268;28;20144;-70
2021/09/27 06:27:41;;;;;;;10.98;4.65;;;;;;;23.36;66.72;100491.75;4998973;28;20033;-70
2021/09/27 06:30:30;;;;;;;6.60;3.85;;;;;;;23.59;66.25;100498.47;4999093;28;20473;-70
2021/09/27 06:32:55;;;;;;;9.88;4.45;;;;;;;23.92;65.54;100500.09;4999587;28;20396;-72
2021/09/27 06:35:24;;;;;;;12.45;4.72;;;;;;;24.16;64.41;100508.34;4998497;28;20054;-71
2021/09/27 06:37:52;;;;;;;6.10;3.90;;;;;;;24.18;64.11;100500.16;5016564;28;20051;-71
2021/09/27 06:40:19;;;;;;;8.85;4.45;;;;;;;24.27;64.54;100514.53;4998832;28;20036;-70
2021/09/27 06:42:45;;;;;;;7.95;4.70;;;;;;;24.28;64.27;100510.44;4998978;28;20042;-70
2021/09/27 06:45:11;;;;;;;8.25;4.07;;;;;;;24.40;63.84;100508.94;4998651;28;20080;-72
2021/09/27 06:47:37;;;;;;;8.98;4.35;;;;;;;24.43;63.23;100505.97;4998802;28;20053;-72
2021/09/27 06:50:05;;;;;;;7.72;4.10;;;;;;;24.47;63.58;100509.53;4998791;28;20038;-71
2021/09/27 06:52:30;;;;;;;10.38;4.68;;;;;;;24.59;63.51;100504.31;4998511;28;20029;-71
2021/09/27 06:54:56;;;;;;;9.13;4.72;;;;;;;25.42;60.98;100494.84;4998304;28;20100;-72
2021/09/27 06:57:22;;;;;;;9.32;4.78;;;;;;;26.09;58.65;100498.19;4998489;28;20033;-72
2021/09/27 06:59:47;;;;;;;10.45;4.60;;;;;;;26.16;57.58;100497.16;5016266;28;20435;-71
2021/09/27 07:02:13;;;;;;;7.25;4.10;;;;;;;25.83;58.78;100497.50;4998610;28;20049;-71
2021/09/27 07:04:39;;;;;;;13.68;4.22;;;;;;;25.51;58.70;100484.31;4998623;28;20084;-72
2021/09/27 07:07:05;;;;;;;4.47;3.70;;;;;;;25.54;59.28;100497.66;4999932;28;20056;-72
2021/09/27 07:09:31;;;;;;;6.47;4.20;;;;;;;25.37;59.35;100484.81;4999023;28;20053;-71
2021/09/27 07:12:00;;;;;;;7.07;3.70;;;;;;;25.38;59.85;100505.53;4998909;28;20026;-71
2021/09/27 07:14:25;;;;;;;6.97;4.40;;;;;;;25.40;59.68;100514.41;4998488;28;20172;-71
2021/09/27 07:16:51;;;;;;;9.13;4.00;;;;;;;25.29;59.95;100523.31;4998522;28;20490;-72
2021/09/27 07:19:16;;;;;;;11.25;4.25;;;;;;;25.37;59.82;100521.84;4998171;28;20046;-72
2021/09/27 07:21:43;;;;;;;11.80;3.40;;;;;;;25.28;60.24;100513.19;4998524;28;20034;-72
2021/09/27 07:24:12;;;;;;;9.38;4.88;;;;;;;25.27;60.11;100525.81;5015666;28;20030;-72
2021/09/27 07:26:39;;;;;;;6.28;3.80;;;;;;;25.21;60.13;100530.50;5015325;28;20365;-71
2021/09/27 07:29:06;;;;;;;9.95;3.75;;;;;;;24.93;61.09;100527.28;4998190;28;20066;-70
2021/09/27 07:31:33;;;;;;;7.25;4.40;;;;;;;24.87;61.38;100529.06;4998131;28;20040;-72
2021/09/27 07:34:00;;;;;;;11.77;4.82;;;;;;;24.81;61.28;100519.50;4997993;28;20475;-72
2021/09/27 07:36:26;;;;;;;6.97;3.28;;;;;;;24.47;61.37;100512.38;4997493;28;20030;-70
2021/09/27 07:38:52;;;;;;;8.98;3.88;;;;;;;24.27;62.24;100520.22;4998112;28;20116;-71
2021/09/27 07:41:18;;;;;;;7.85;4.70;;;;;;;24.43;62.16;100527.94;4998184;28;20445;-70
2021/09/27 07:43:46;;;;;;;9.80;5.22;;;;;;;24.45;61.66;100514.88;4997632;28;20041;-71
2021/09/27 07:46:12;;;;;;;12.68;5.13;;;;;;;24.49;62.07;100529.78;4982371;28;20040;-71
2021/09/27 07:48:38;;;;;;;11.13;4.60;;;;;;;24.63;61.69;100533.47;5001199;28;20069;-71
2021/09/27 07:51:04;;;;;;;9.20;3.78;;;;;;;24.85;61.28;100536.47;5004247;28;20033;-72
2021/09/27 07:53:30;;;;;;;11.23;3.30;;;;;;;25.06;61.52;100539.47;5001753;28;20088;-71
2021/09/27 07:55:56;;;;;;;8.32;3.70;;;;;;;25.74;59.81;100548.72;4998427;28;20033;-71
2021/09/27 07:58:24;;;;;;;10.98;3.83;;;;;;;26.23;57.13;100550.28;4998278;28;20052;-72
2021/09/27 08:00:51;;;;;;;2.65;2.42;;;;;;;26.45;56.07;100553.97;4997781;28;20487;-72
2021/09/27 08:03:17;;;;;;;7.97;3.42;;;;;;;26.48;55.37;100535.94;4997752;28;20564;-72
2021/09/27 08:05:43;;;;;;;6.65;3.17;;;;;;;26.46;55.24;100529.88;4997648;28;20065;-72
2021/09/27 08:08:09;;;;;;;9.68;3.65;;;;;;;26.59;55.69;100541.25;5015477;28;20415;-70
2021/09/27 08:10:36;;;;;;;9.25;3.60;;;;;;;26.80;54.73;100553.91;4997618;28;20051;-71
2021/09/27 08:13:05;;;;;;;12.07;3.60;;;;;;;27.10;53.16;100560.91;4997474;28;20133;-72
2021/09/27 08:15:34;;;;;;;6.32;2.92;;;;;;;27.18;53.09;100556.53;4997096;28;20032;-72
2021/09/27 08:18:01;;;;;;;9.10;3.40;;;;;;;27.20;52.93;100567.47;4997533;28;20037;-71
2021/09/27 08:20:56;;;;;;;8.23;3.15;;;;;;;27.00;52.83;100568.59;4997119;28;20038;-72
2021/09/27 08:23:23;;;;;;;6.57;2.88;;;;;;;26.85;53.15;100571.22;4996968;28;20120;-71
2021/09/27 08:25:49;;;;;;;8.45;3.20;;;;;;;26.72;53.39;100569.69;4980862;28;20034;-72
2021/09/27 08:28:19;;;;;;;7.93;3.47;;;;;;;26.89;53.45;100582.50;4996742;28;20026;-72
2021/09/27 08:30:49;;;;;;;10.73;3.60;;;;;;;26.82;53.49;100575.00;4997418;28;20060;-73
2021/09/27 08:33:15;;;;;;;6.00;3.22;;;;;;;26.71;53.88;100576.69;4996932;28;20170;-72
2021/09/27 08:35:41;;;;;;;8.98;3.65;;;;;;;26.23;54.60;100551.06;5013813;28;20072;-72
2021/09/27 08:38:09;;;;;;;8.27;4.10;;;;;;;26.04;55.27;100552.16;4996372;28;20034;-72
2021/09/27 08:40:56;;;;;;;14.23;4.25;;;;;;;25.91;55.74;100560.75;4996640;28;20057;-72
2021/09/27 08:43:39;;;;;;;7.07;4.00;;;;;;;26.09;55.71;100562.97;5014227;28;20029;-72
2021/09/27 08:46:13;;;;;;;15.15;7.10;;;;;;;26.04;56.32;100552.94;4996276;28;20034;-71
2021/09/27 08:48:45;;;;;;;16.02;7.00;;;;;;;25.66;56.98;100552.22;4995376;28;20032;-71
2021/09/27 08:51:10;;;;;;;14.40;7.25;;;;;;;25.52;56.91;100554.31;4996647;28;20037;-71
2021/09/27 08:53:42;;;;;;;12.70;6.28;;;;;;;25.26;57.66;100550.66;4996477;28;20030;-72
2021/09/27 08:56:32;;;;;;;12.50;6.50;;;;;;;25.40;57.60;100537.19;4996506;28;20030;-71
2021/09/27 08:59:30;;;;;;;13.75;6.78;;;;;;;25.59;57.83;100554.06;4996479;28;20061;-72
2021/09/27 09:02:01;;;;;;;13.30;6.82;;;;;;;25.54;58.04;100560.31;4985581;28;20076;-71
2021/09/27 09:05:11;;;;;;;11.73;6.60;;;;;;;25.88;56.39;100558.81;4996358;28;20542;-71
2021/09/27 09:08:11;;;;;;;11.30;7.05;;;;;;;26.19;56.26;100561.00;4995796;28;20040;-71
2021/09/27 09:10:57;;;;;;;12.13;6.30;;;;;;;26.46;55.00;100561.25;4996428;28;20030;-71
2021/09/27 09:13:42;;;;;;;16.77;7.80;;;;;;;26.35;54.65;100567.34;4996317;28;20033;-71
2021/09/27 09:16:11;;;;;;;12.43;6.40;;;;;;;26.37;54.91;100564.03;4996186;28;20511;-71
2021/09/27 09:18:50;;;;;;;16.73;6.72;;;;;;;26.32;54.84;100556.06;5013304;28;20392;-72
2021/09/27 09:21:24;;;;;;;8.55;6.20;;;;;;;26.17;55.59;100549.28;4996523;28;20022;-72
2021/09/27 09:23:53;;;;;;;12.95;6.65;;;;;;;26.33;55.29;100552.75;4995878;28;20038;-73
2021/09/27 09:26:44;;;;;;;12.35;6.60;;;;;;;26.37;55.15;100547.72;4996625;28;20034;-72
2021/09/27 09:29:20;;;;;;;10.82;5.90;;;;;;;26.24;56.01;100560.44;4995631;28;20134;-71
2021/09/27 09:31:50;;;;;;;17.30;7.47;;;;;;;26.01;56.91;100558.81;4995683;28;20117;-72
2021/09/27 09:34:19;;;;;;;12.15;6.65;;;;;;;26.38;55.75;100571.31;4995591;28;20069;-71
2021/09/27 09:36:56;;;;;;;12.57;7.78;;;;;;;26.30;55.84;100570.78;4995889;28;20559;-71
2021/09/27 09:39:24;;;;;;;11.75;7.05;;;;;;;26.33;55.88;100577.63;4995634;28;20101;-72
2021/09/27 09:41:59;;;;;;;15.38;7.90;;;;;;;26.30;55.41;100575.69;4995354;28;20030;-72
2021/09/27 09:44:37;;;;;;;12.13;7.38;;;;;;;26.37;55.70;100575.44;4995576;28;20037;-73
2021/09/27 09:47:05;;;;;;;12.82;6.65;;;;;;;26.30;55.61;100552.88;4996258;28;20040;-72
2021/09/27 09:49:55;;;;;;;11.57;6.85;;;;;;;26.20;55.72;100568.31;4996222;28;20030;-72
2021/09/27 09:52:36;;;;;;;14.48;6.55;;;;;;;26.37;55.33;100556.28;4995780;28;20030;-72
2021/09/27 09:55:14;;;;;;;11.18;6.22;;;;;;;26.55;54.88;100552.78;5013201;28;20057;-71
2021/09/27 09:57:42;;;;;;;8.80;5.50;;;;;;;26.53;54.55;100538.19;4995830;28;20530;-71
2021/09/27 10:00:19;;;;;;;15.73;6.90;;;;;;;26.09;56.01;100509.59;4999560;28;20030;-71
2021/09/27 10:02:51;;;;;;;15.55;8.32;;;;;;;26.27;55.32;100528.13;4999408;28;20034;-71
2021/09/27 10:05:16;;;;;;;14.30;7.43;;;;;;;26.08;56.61;100530.03;5017280;28;20036;-71
2021/09/27 10:07:50;;;;;;;13.32;7.72;;;;;;;26.03;56.50;100544.88;4998640;28;20380;-70
2021/09/27 10:10:47;;;;;;;12.18;6.95;;;;;;;26.06;56.14;100541.91;4998745;28;20037;-71
2021/09/27 10:13:36;;;;;;;18.85;8.00;;;;;;;26.26;56.28;100544.47;4988167;28;20070;-71
2021/09/27 10:16:15;;;;;;;13.32;6.75;;;;;;;26.32;55.80;100536.09;4998798;28;20033;-71
2021/09/27 10:18:44;;;;;;;12.07;7.05;;;;;;;26.18;56.39;100533.75;4998309;28;20064;-72
2021/09/27 10:21:19;;;;;;;17.65;7.95;;;;;;;25.74;56.75;100513.69;4983114;28;20030;-71
2021/09/27 10:23:51;;;;;;;11.18;7.35;;;;;;;25.81;56.82;100528.50;4998522;28;20042;-71
2021/09/27 10:26:36;;;;;;;17.83;7.25;;;;;;;25.68;57.63;100524.09;4998311;28;20030;-71
2021/09/27 10:29:13;;;;;;;14.57;6.88;;;;;;;25.60;57.38;100515.75;4998711;28;20037;-71
2021/09/27 10:31:41;;;;;;;15.27;6.90;;;;;;;25.51;58.24;100521.34;4998799;28;20030;-71
2021/09/27 10:34:15;;;;;;;10.63;7.10;;;;;;;25.48;57.89;100519.44;4998336;28;20159;-71
2021/09/27 10:36:51;;;;;;;12.65;7.15;;;;;;;25.57;58.10;100515.91;4999110;28;20030;-72
2021/09/27 10:39:19;;;;;;;15.90;8.07;;;;;;;25.48;57.98;100504.41;5016469;28;20033;-72
2021/09/27 10:41:52;;;;;;;12.40;7.10;;;;;;;25.53;57.32;100513.16;4998900;28;20026;-71
2021/09/27 10:44:19;;;;;;;;;;;;;;;25.55;56.20;100510.63;4999803;28;20105;-71
2021/09/27 10:46:48;;;;;;;9.15;3.47;;;;;;;25.77;55.63;100509.94;4998686;28;19919;-72
2021/09/27 10:49:21;;;;;;;5.05;3.28;;;;;;;25.94;55.23;100510.56;4999080;28;20369;-73
2021/09/27 10:51:50;;;;;;;;;;;;;;;26.05;55.32;100514.66;4999578;28;20060;-71
2021/09/27 10:54:16;;;;;;;7.45;3.47;;;;;;;26.21;55.31;100513.69;4998548;28;19920;-69
2021/09/27 10:56:48;;;;;;;9.15;4.28;;;;;;;26.45;55.45;100514.03;4999144;28;20030;-71
2021/09/27 10:59:28;;;;;;;8.05;4.15;;;;;;;26.48;54.84;100503.75;4998813;28;20073;-70
2021/09/27 11:01:59;;;;;;;7.15;3.97;;;;;;;26.61;54.08;100498.75;4998330;28;20026;-72
2021/09/27 11:04:35;;;;;;;10.85;4.40;;;;;;;26.59;53.94;100502.09;4998180;28;20091;-72
2021/09/27 11:07:21;;;;;;;7.22;3.40;;;;;;;26.45;54.30;100516.88;4998285;28;20026;-70
2021/09/27 11:09:48;;;;;;;6.85;4.20;;;;;;;26.63;54.16;100511.31;4997760;28;20125;-72
2021/09/27 11:12:37;;;;;;;7.88;3.97;;;;;;;26.70;53.71;100512.31;4981867;28;20033;-70
2021/09/27 11:15:24;;;;;;;10.95;3.55;;;;;;;26.78;53.52;100510.75;4998676;28;20029;-70
2021/09/27 11:18:23;;;;;;;9.68;3.40;;;;;;;26.74;53.26;100507.22;4997839;28;20117;-70
2021/09/27 11:20:49;;;;;;;8.30;3.50;;;;;;;26.81;52.90;100501.25;4997880;28;20040;-72
2021/09/27 11:23:34;;;;;;;8.55;3.25;;;;;;;26.67;53.37;100481.84;4997860;28;20049;-72
2021/09/27 11:26:15;;;;;;;8.68;3.25;;;;;;;26.50;53.77;100464.94;4997928;28;20033;-71
2021/09/27 11:29:14;;;;;;;16.17;3.78;;;;;;;26.52;53.49;100473.81;4998094;28;20033;-72
2021/09/27 11:31:41;;;;;;;7.13;3.50;;;;;;;26.48;53.63;100461.75;5015866;28;20038;-72
2021/09/27 11:34:25;;;;;;;9.38;3.70;;;;;;;26.51;53.61;100452.25;5015670;28;20440;-71
2021/09/27 11:36:56;;;;;;;5.07;2.95;;;;;;;26.52;53.78;100439.56;4998015;28;20025;-72
2021/09/27 11:39:38;;;;;;;10.05;2.90;;;;;;;26.74;52.93;100468.09;4998063;28;20376;-73
2021/09/27 11:42:19;;;;;;;7.80;3.43;;;;;;;26.61;52.90;100459.59;4997859;28;20476;-72
2021/09/27 11:45:13;;;;;;;7.15;2.92;;;;;;;26.86;52.81;100472.13;4997792;28;20025;-73
2021/09/27 11:47:45;;;;;;;6.22;3.17;;;;;;;26.81;52.54;100475.56;5015493;28;20025;-71
2021/09/27 11:50:48;;;;;;;13.40;4.22;;;;;;;26.86;52.43;100455.78;4998190;28;20095;-70
2021/09/27 11:53:39;;;;;;;11.68;3.15;;;;;;;26.64;53.22;100441.56;4997403;28;20037;-71
2021/09/27 11:56:27;;;;;;;6.07;3.05;;;;;;;27.07;52.39;100445.59;5015198;28;20026;-70
2021/09/27 11:59:34;;;;;;;10.63;3.55;;;;;;;27.30;51.72;100438.50;4998312;28;20119;-72
2021/09/27 12:02:04;;;;;;;6.85;3.95;;;;;;;27.53;50.65;100424.88;4997460;28;20053;-71
2021/09/27 12:04:48;;;;;;;10.85;3.63;;;;;;;27.57;51.04;100423.47;4998157;28;20033;-72
2021/09/27 12:07:17;;;;;;;7.93;3.22;;;;;;;27.87;50.62;100435.28;4997465;28;20033;-72
2021/09/27 12:09:55;;;;;;;7.32;2.63;;;;;;;28.02;50.61;100441.13;4997433;28;20033;-72